createdAt,value
2017-06-28T00:00:49.684Z,14.53
2017-06-28T00:03:26.412Z,15.00
2017-06-28T00:06:05.158Z,14.90
2017-06-28T00:11:33.216Z,13.77
2017-06-28T00:14:07.809Z,13.13
2017-06-28T00:16:44.389Z,15.50
2017-06-28T00:19:22.724Z,13.60
2017-06-28T00:22:08.864Z,13.43
2017-06-28T00:25:07.044Z,13.00
2017-06-28T00:33:32.845Z,13.33
2017-06-28T00:36:00.864Z,12.40
2017-06-28T00:44:35.932Z,13.83
2017-06-28T00:47:08.145Z,13.37
2017-06-28T00:55:28.240Z,14.70
2017-06-28T00:57:59.732Z,13.80
2017-06-28T01:03:33.622Z,13.90
2017-06-28T01:06:07.344Z,12.87
2017-06-28T01:11:48.511Z,14.07
2017-06-28T01:14:22.432Z,15.40
2017-06-28T01:17:05.007Z,14.97
2017-06-28T01:19:45.080Z,15.80
2017-06-28T01:22:17.028Z,16.67
2017-06-28T01:25:06.820Z,15.60
2017-06-28T01:27:40.467Z,15.90
2017-06-28T01:33:07.467Z,17.00
2017-06-28T01:35:36.423Z,17.97
2017-06-28T01:44:15.344Z,18.10
2017-06-28T01:46:49.771Z,16.40
2017-06-28T01:49:27.575Z,15.13
2017-06-28T01:52:03.211Z,16.43
2017-06-28T01:54:33.164Z,15.00
2017-06-28T01:57:01.183Z,16.70
2017-06-28T02:08:14.620Z,13.50
2017-06-28T02:16:49.050Z,15.10
2017-06-28T02:22:10.810Z,13.80
2017-06-28T02:24:45.827Z,15.47
2017-06-28T02:27:21.670Z,15.27
2017-06-28T02:29:50.586Z,14.53
2017-06-28T02:32:29.319Z,14.20
2017-06-28T02:34:57.342Z,14.60
2017-06-28T02:37:38.315Z,14.23
2017-06-28T02:40:33.410Z,14.87
2017-06-28T02:49:06.419Z,15.03
2017-06-28T02:51:57.334Z,15.03
2017-06-28T02:54:30.035Z,15.63
2017-06-28T02:56:59.958Z,15.37
2017-06-28T03:02:21.370Z,14.60
2017-06-28T03:05:06.046Z,13.90
2017-06-28T03:07:51.790Z,14.60
2017-06-28T03:10:27.314Z,14.97
2017-06-28T03:13:06.830Z,15.70
2017-06-28T03:15:42.695Z,16.30
2017-06-28T03:18:21.487Z,15.87
2017-06-28T03:21:06.042Z,17.40
2017-06-28T03:23:34.071Z,16.20
2017-06-28T03:26:02.886Z,16.70
2017-06-28T03:28:37.366Z,14.80
2017-06-28T03:31:27.014Z,16.03
2017-06-28T03:34:06.610Z,15.07
2017-06-28T03:36:34.634Z,14.33
2017-06-28T03:42:06.485Z,13.80
2017-06-28T03:44:40.247Z,14.93
2017-06-28T03:47:08.270Z,14.30
2017-06-28T03:49:38.214Z,13.87
2017-06-28T03:52:07.241Z,14.43
2017-06-28T03:54:37.017Z,14.90
2017-06-28T04:00:06.449Z,14.20
2017-06-28T04:02:43.763Z,14.00
2017-06-28T04:14:07.056Z,13.27
2017-06-28T04:16:49.581Z,13.87
2017-06-28T04:19:41.741Z,11.80
2017-06-28T04:22:18.113Z,13.20
2017-06-28T04:28:06.697Z,12.40
2017-06-28T04:30:34.789Z,12.27
2017-06-28T04:33:03.801Z,12.80
2017-06-28T04:41:41.137Z,13.10
2017-06-28T04:44:09.925Z,13.53
2017-06-28T04:49:37.061Z,12.50
2017-06-28T04:52:25.781Z,12.90
2017-06-28T04:54:59.425Z,10.80
2017-06-28T04:57:51.933Z,12.00
2017-06-28T05:00:35.057Z,13.33
2017-06-28T05:03:06.266Z,13.17
2017-06-28T05:05:52.360Z,14.10
2017-06-28T05:08:24.709Z,12.83
2017-06-28T05:10:52.756Z,13.20
2017-06-28T05:13:26.929Z,12.60
2017-06-28T05:16:06.497Z,12.07
2017-06-28T05:18:35.444Z,11.77
2017-06-28T05:21:22.468Z,10.30
2017-06-28T05:27:05.529Z,10.17
2017-06-28T05:29:38.392Z,11.40
2017-06-28T05:32:07.344Z,10.43
2017-06-28T05:34:47.392Z,11.50
2017-06-28T05:37:17.425Z,12.60
2017-06-28T05:39:46.340Z,10.83
2017-06-28T05:42:39.325Z,11.47
2017-06-28T05:45:14.976Z,12.10
2017-06-28T05:47:44.013Z,12.47
2017-06-28T05:50:12.036Z,12.07
2017-06-28T05:52:40.065Z,11.40
2017-06-28T05:55:08.876Z,12.77
2017-06-28T05:57:36.904Z,14.07
2017-06-28T06:00:04.952Z,14.33
2017-06-28T06:02:33.012Z,13.83
2017-06-28T06:05:01.032Z,12.83
2017-06-28T06:07:29.048Z,12.97
2017-06-28T06:09:57.096Z,13.13
2017-06-28T06:12:25.127Z,13.30
2017-06-28T06:14:53.138Z,14.10
2017-06-28T06:17:21.204Z,15.00
2017-06-28T06:19:49.232Z,14.10
2017-06-28T06:22:17.252Z,14.30
2017-06-28T06:24:45.317Z,13.53
2017-06-28T06:27:13.336Z,14.43
2017-06-28T06:29:41.377Z,14.63
2017-06-28T06:32:09.432Z,15.23
2017-06-28T06:34:37.444Z,13.90
2017-06-28T06:37:05.467Z,14.40
2017-06-28T06:39:33.515Z,14.97
2017-06-28T06:42:02.308Z,15.00
2017-06-28T06:44:31.095Z,15.40
2017-06-28T06:46:59.904Z,12.17
2017-06-28T06:49:27.925Z,11.60
2017-06-28T06:51:55.944Z,11.80
2017-06-28T06:54:25.928Z,11.07
2017-06-28T06:56:54.714Z,10.63
2017-06-28T06:59:23.503Z,9.40
2017-06-28T07:01:51.539Z,8.80
2017-06-28T07:04:23.004Z,10.40
2017-06-28T07:06:51.056Z,9.50
2017-06-28T07:09:19.076Z,8.70
2017-06-28T07:11:47.848Z,8.87
2017-06-28T07:14:15.895Z,9.20
2017-06-28T07:16:43.912Z,8.10
2017-06-28T07:19:12.684Z,9.00
2017-06-28T07:21:42.487Z,7.20
2017-06-28T07:24:11.263Z,7.50
2017-06-28T07:26:39.274Z,6.60
2017-06-28T07:29:07.319Z,7.33
2017-06-28T07:31:36.102Z,6.33
2017-06-28T07:34:04.107Z,7.30
2017-06-28T07:36:32.155Z,6.80
2017-06-28T07:39:01.827Z,7.90
2017-06-28T07:41:29.839Z,8.43
2017-06-28T07:43:59.847Z,8.17
2017-06-28T07:46:28.629Z,7.60
2017-06-28T07:48:58.415Z,7.23
2017-06-28T07:51:26.447Z,7.50
2017-06-28T07:53:54.463Z,7.87
2017-06-28T07:56:22.466Z,7.93
2017-06-28T07:58:50.519Z,8.53
2017-06-28T08:01:20.303Z,7.87
2017-06-28T08:03:48.319Z,7.70
2017-06-28T08:06:16.367Z,6.57
2017-06-28T08:08:45.140Z,7.13
2017-06-28T08:11:13.155Z,6.40
2017-06-28T08:13:41.191Z,5.77
2017-06-28T08:16:09.212Z,6.27
2017-06-28T08:18:37.223Z,6.30
2017-06-28T08:21:05.259Z,5.40
2017-06-28T08:23:33.267Z,5.10
2017-06-28T08:26:01.275Z,6.40
2017-06-28T08:28:29.307Z,5.80
2017-06-28T08:30:58.079Z,6.93
2017-06-28T08:33:26.090Z,6.47
2017-06-28T08:35:54.143Z,6.13
2017-06-28T08:38:23.094Z,6.67
2017-06-28T08:40:51.106Z,6.20
2017-06-28T08:43:19.910Z,6.57
2017-06-28T08:45:47.918Z,7.23
2017-06-28T08:48:16.927Z,5.43
2017-06-28T08:50:44.946Z,6.27
2017-06-28T08:53:12.956Z,5.80
2017-06-28T08:55:41.948Z,5.63
2017-06-28T08:58:10.002Z,5.33
2017-06-28T09:00:38.006Z,6.10
2017-06-28T09:03:06.014Z,6.77
2017-06-28T09:05:34.054Z,6.90
2017-06-28T09:08:02.839Z,6.00
2017-06-28T09:10:31.718Z,5.93
2017-06-28T09:12:59.750Z,5.53
2017-06-28T09:15:27.758Z,6.80
2017-06-28T09:17:55.767Z,5.90
2017-06-28T09:20:23.790Z,6.60
2017-06-28T09:22:51.802Z,5.73
2017-06-28T09:25:19.810Z,5.87
2017-06-28T09:27:47.842Z,5.03
2017-06-28T09:30:15.875Z,6.50
2017-06-28T09:32:43.887Z,5.40
2017-06-28T09:35:11.906Z,6.93
2017-06-28T09:37:39.911Z,6.90
2017-06-28T09:40:08.689Z,5.70
2017-06-28T09:42:37.494Z,5.40
2017-06-28T09:45:05.502Z,3.70
2017-06-28T09:47:33.509Z,3.10
2017-06-28T09:50:02.290Z,3.33
2017-06-28T09:52:30.298Z,2.30
2017-06-28T09:54:58.301Z,2.77
2017-06-28T09:57:26.343Z,3.00
2017-06-28T09:59:54.357Z,2.70
2017-06-28T10:02:22.358Z,3.20
2017-06-28T10:04:50.390Z,3.73
2017-06-28T10:07:19.377Z,3.43
2017-06-28T10:09:47.387Z,3.40
2017-06-28T10:12:16.194Z,4.07
2017-06-28T10:14:44.205Z,3.40
2017-06-28T10:17:13.198Z,3.77
2017-06-28T10:19:41.250Z,3.90
2017-06-28T10:22:09.259Z,3.50
2017-06-28T10:24:37.266Z,4.07
2017-06-28T10:27:05.297Z,3.33
2017-06-28T10:29:33.309Z,3.60
2017-06-28T10:32:01.313Z,3.23
2017-06-28T10:34:30.345Z,3.57
2017-06-28T10:36:59.113Z,3.13
2017-06-28T10:39:28.089Z,3.70
2017-06-28T10:41:56.117Z,3.47
2017-06-28T10:44:24.125Z,3.60
2017-06-28T10:46:52.137Z,4.13
2017-06-28T10:49:20.941Z,3.97
2017-06-28T10:51:48.957Z,4.23
2017-06-28T10:54:16.971Z,3.97
2017-06-28T10:56:45.769Z,4.10
2017-06-28T10:59:13.804Z,3.50
2017-06-28T11:01:41.817Z,4.47
2017-06-28T11:04:09.853Z,3.73
2017-06-28T11:06:38.621Z,3.80
2017-06-28T11:09:06.633Z,3.00
2017-06-28T11:11:34.679Z,3.43
2017-06-28T11:14:04.305Z,3.30
2017-06-28T11:16:33.069Z,3.80
2017-06-28T11:19:01.100Z,3.73
2017-06-28T11:21:29.117Z,3.87
2017-06-28T11:23:57.888Z,4.00
2017-06-28T11:26:25.921Z,4.20
2017-06-28T11:28:54.829Z,3.60
2017-06-28T11:31:23.817Z,3.53
2017-06-28T11:33:51.852Z,3.10
2017-06-28T11:36:19.869Z,3.43
2017-06-28T11:38:47.880Z,4.33
2017-06-28T11:41:15.912Z,3.03
2017-06-28T11:43:43.925Z,3.23
2017-06-28T11:46:11.937Z,4.17
2017-06-28T11:48:39.948Z,3.73
2017-06-28T11:51:09.717Z,3.60
2017-06-28T11:53:38.716Z,3.60
2017-06-28T11:56:06.736Z,4.17
2017-06-28T11:58:34.744Z,4.37
2017-06-28T12:01:02.752Z,3.80
2017-06-28T12:03:30.777Z,4.57
2017-06-28T12:05:58.788Z,3.73
2017-06-28T12:08:28.576Z,3.20
2017-06-28T12:10:56.588Z,3.20
2017-06-28T12:13:24.613Z,2.50
2017-06-28T12:15:53.604Z,1.80
2017-06-28T12:18:21.624Z,1.90
2017-06-28T12:20:49.636Z,1.80
2017-06-28T12:23:17.648Z,1.60
2017-06-28T12:25:46.432Z,1.70
2017-06-28T12:28:16.212Z,1.20
2017-06-28T12:30:44.234Z,1.63
2017-06-28T12:33:12.255Z,1.50
2017-06-28T12:35:40.276Z,1.37
2017-06-28T12:38:08.288Z,1.70
2017-06-28T12:40:36.311Z,1.60
2017-06-28T12:43:04.319Z,1.70
2017-06-28T12:45:33.319Z,1.60
2017-06-28T12:48:03.344Z,1.60
2017-06-28T12:50:31.360Z,1.40
2017-06-28T12:53:00.303Z,1.50
2017-06-28T12:55:28.339Z,1.77
2017-06-28T12:57:56.340Z,1.47
2017-06-28T13:00:24.359Z,1.60
2017-06-28T13:02:52.404Z,1.60
2017-06-28T13:05:20.415Z,1.37
2017-06-28T13:07:48.424Z,1.77
2017-06-28T13:10:17.415Z,1.87
2017-06-28T13:12:45.432Z,1.60
2017-06-28T13:15:13.448Z,1.70
2017-06-28T13:17:41.487Z,1.80
2017-06-28T13:20:09.503Z,1.40
2017-06-28T13:22:38.499Z,2.10
2017-06-28T13:25:06.519Z,1.40
2017-06-28T13:27:34.535Z,1.43
2017-06-28T13:30:02.543Z,1.37
2017-06-28T13:32:30.567Z,1.23
2017-06-28T13:34:58.580Z,1.60
2017-06-28T13:37:26.599Z,1.60
2017-06-28T13:39:54.635Z,1.47
2017-06-28T13:42:22.652Z,1.30
2017-06-28T13:44:50.659Z,1.70
2017-06-28T13:47:18.691Z,1.47
2017-06-28T13:49:46.703Z,1.43
2017-06-28T13:52:14.719Z,0.97
2017-06-28T13:54:43.628Z,1.80
2017-06-28T13:57:11.648Z,1.50
2017-06-28T13:59:39.655Z,1.30
2017-06-28T14:02:07.691Z,1.60
2017-06-28T14:04:35.715Z,1.47
2017-06-28T14:07:04.495Z,1.50
2017-06-28T14:09:32.527Z,1.50
2017-06-28T14:12:01.547Z,1.53
2017-06-28T14:14:29.559Z,1.50
2017-06-28T14:16:57.607Z,1.60
2017-06-28T14:19:26.379Z,1.67
2017-06-28T14:21:54.391Z,1.30
2017-06-28T14:24:23.095Z,1.30
2017-06-28T14:26:51.115Z,1.43
2017-06-28T14:29:19.892Z,1.67
2017-06-28T14:31:47.915Z,1.43
2017-06-28T14:34:16.839Z,1.70
2017-06-28T14:36:44.855Z,1.40
2017-06-28T14:39:14.847Z,1.50
2017-06-28T14:41:42.879Z,1.40
2017-06-28T14:44:10.887Z,1.50
2017-06-28T14:46:40.703Z,1.30
2017-06-28T14:49:08.719Z,1.40
2017-06-28T14:51:37.727Z,1.60
2017-06-28T14:54:05.759Z,1.30
2017-06-28T14:56:33.766Z,1.57
2017-06-28T14:59:01.775Z,2.13
2017-06-28T15:01:30.579Z,1.27
2017-06-28T15:03:58.595Z,1.73
2017-06-28T15:06:27.591Z,1.20
2017-06-28T15:08:55.622Z,1.67
2017-06-28T15:11:23.631Z,1.50
2017-06-28T15:13:51.646Z,1.60
2017-06-28T15:16:19.670Z,1.53
2017-06-28T15:18:47.687Z,1.50
2017-06-28T15:21:15.782Z,1.50
2017-06-28T15:23:43.830Z,1.07
2017-06-28T15:26:11.846Z,1.60
2017-06-28T15:28:39.862Z,1.40
2017-06-28T15:31:08.678Z,1.30
2017-06-28T15:33:36.678Z,1.43
2017-06-28T15:36:04.698Z,1.30
2017-06-28T15:38:32.742Z,1.30
2017-06-28T15:41:01.514Z,1.40
2017-06-28T15:43:29.522Z,1.40
2017-06-28T15:45:57.546Z,1.60
2017-06-28T15:48:25.557Z,1.40
2017-06-28T15:50:53.577Z,1.50
2017-06-28T15:53:22.578Z,1.77
2017-06-28T15:56:02.410Z,1.30
2017-06-28T15:58:30.453Z,2.07
2017-06-28T16:00:58.457Z,1.63
2017-06-28T16:03:27.455Z,1.70
2017-06-28T16:05:55.481Z,1.37
2017-06-28T16:08:23.494Z,2.37
2017-06-28T16:10:51.498Z,2.23
2017-06-28T16:13:20.461Z,1.80
2017-06-28T16:15:48.478Z,1.30
2017-06-28T16:18:16.489Z,1.83
2017-06-28T16:20:44.505Z,1.60
2017-06-28T16:23:12.509Z,1.03
2017-06-28T16:25:40.517Z,1.50
2017-06-28T16:28:08.529Z,1.20
2017-06-28T16:30:36.537Z,1.20
2017-06-28T16:33:04.549Z,1.40
2017-06-28T16:35:33.349Z,1.50
2017-06-28T16:38:02.109Z,1.73
2017-06-28T16:40:30.881Z,1.30
2017-06-28T16:42:58.897Z,1.10
2017-06-28T16:45:26.905Z,1.40
2017-06-28T16:47:54.913Z,1.50
2017-06-28T17:03:18.037Z,1.60
2017-06-28T17:05:46.042Z,1.50
2017-06-28T17:08:14.057Z,1.63
2017-06-28T17:10:42.077Z,1.90
2017-06-28T17:13:10.097Z,1.60
2017-06-28T17:15:38.116Z,1.40
2017-06-28T17:18:06.120Z,1.40
2017-06-28T17:20:34.128Z,1.70
2017-06-28T17:23:02.904Z,1.50
2017-06-28T17:25:30.917Z,1.60
2017-06-28T17:27:58.925Z,1.50
2017-06-28T17:30:26.953Z,1.90
2017-06-28T17:32:54.993Z,1.57
2017-06-28T17:35:22.997Z,1.50
2017-06-28T17:37:51.005Z,1.87
2017-06-28T17:40:19.033Z,1.93
2017-06-28T17:42:47.045Z,1.83
2017-06-28T17:45:15.061Z,1.80
2017-06-28T17:47:43.844Z,1.90
2017-06-28T17:50:12.616Z,1.80
2017-06-28T17:52:40.620Z,2.03
2017-06-28T17:55:08.636Z,1.63
2017-06-28T17:57:36.654Z,1.60
2017-06-28T18:00:04.669Z,1.40
2017-06-28T18:02:32.688Z,1.60
2017-06-28T18:05:00.712Z,1.43
2017-06-28T18:07:28.712Z,1.70
2017-06-28T18:09:57.504Z,1.60
2017-06-28T18:12:26.276Z,1.63
2017-06-28T18:14:54.288Z,1.80
2017-06-28T18:17:22.304Z,1.63
2017-06-28T18:19:50.312Z,1.77
2017-06-28T18:22:18.436Z,1.67
2017-06-28T18:24:46.476Z,1.50
2017-06-28T18:27:14.476Z,1.63
2017-06-28T18:29:42.484Z,1.50
2017-06-28T18:32:11.280Z,1.53
2017-06-28T18:34:39.292Z,1.47
2017-06-28T18:37:07.300Z,1.67
2017-06-28T18:39:36.084Z,1.60
2017-06-28T18:42:04.860Z,1.80
2017-06-28T18:44:32.865Z,2.33
2017-06-28T18:47:00.892Z,1.93
2017-06-28T18:49:28.904Z,1.43
2017-06-28T18:51:56.933Z,2.10
2017-06-28T18:54:25.064Z,1.53
2017-06-28T18:56:53.091Z,1.33
2017-06-28T18:59:21.871Z,1.80
2017-06-28T19:01:49.896Z,1.40
2017-06-28T19:04:17.908Z,1.60
2017-06-28T19:06:45.916Z,1.50
2017-06-28T19:09:13.956Z,1.57
2017-06-28T19:11:41.953Z,1.80
2017-06-28T19:14:09.964Z,1.77
2017-06-28T19:16:37.984Z,1.63
2017-06-28T19:19:05.992Z,1.50
2017-06-28T19:21:34.008Z,1.93
2017-06-28T19:24:02.816Z,2.07
2017-06-28T19:26:30.832Z,1.70
2017-06-28T19:28:58.844Z,2.30
2017-06-28T19:31:27.648Z,2.00
2017-06-28T19:33:55.660Z,2.30
2017-06-28T19:36:23.672Z,2.07
2017-06-28T19:38:51.711Z,2.07
2017-06-28T19:41:19.724Z,1.93
2017-06-28T19:43:47.727Z,1.80
2017-06-28T19:46:15.763Z,1.73
2017-06-28T19:48:49.980Z,1.80
2017-06-28T19:54:12.099Z,1.97
2017-06-28T19:56:42.051Z,1.90
2017-06-28T19:59:10.079Z,2.17
2017-06-28T20:01:43.112Z,1.97
2017-06-28T20:04:11.127Z,1.90
2017-06-28T20:06:52.051Z,1.87
2017-06-28T20:12:19.755Z,1.90
2017-06-28T20:14:47.768Z,2.13
2017-06-28T20:17:20.143Z,1.83
2017-06-28T20:19:53.972Z,1.93
2017-06-28T20:22:32.507Z,1.80
2017-06-28T20:25:05.439Z,1.67
2017-06-28T20:27:34.439Z,1.87
2017-06-28T20:30:04.355Z,2.23
2017-06-28T20:32:37.747Z,2.47
2017-06-28T20:35:05.763Z,2.03
2017-06-28T20:37:38.139Z,2.30
2017-06-28T20:40:07.074Z,1.80
2017-06-28T20:42:38.363Z,2.10
2017-06-28T20:48:07.191Z,1.77
2017-06-28T20:50:56.619Z,2.03
2017-06-28T20:56:25.803Z,2.50
2017-06-28T20:59:03.550Z,1.90
2017-06-28T21:01:37.326Z,1.73
2017-06-28T21:04:06.175Z,2.10
2017-06-28T21:06:43.962Z,2.10
2017-06-28T21:09:20.903Z,2.00
2017-06-28T21:12:03.358Z,2.47
2017-06-28T21:20:28.875Z,1.60
2017-06-28T21:23:02.579Z,1.87
2017-06-28T21:25:33.607Z,1.80
2017-06-28T21:28:02.406Z,3.13
2017-06-28T21:30:30.423Z,3.40
2017-06-28T21:33:01.823Z,2.70
2017-06-28T21:38:48.966Z,2.30
2017-06-28T21:41:16.983Z,2.10
2017-06-28T21:43:58.126Z,2.00
2017-06-28T21:46:47.391Z,2.30
2017-06-28T21:49:20.122Z,2.47
2017-06-28T21:52:07.370Z,2.23
2017-06-28T21:54:41.287Z,1.70
2017-06-28T21:57:11.218Z,1.70
2017-06-28T21:59:47.688Z,1.70
2017-06-28T22:02:27.602Z,1.77
2017-06-28T22:04:57.523Z,2.20
2017-06-28T22:10:22.522Z,1.87
2017-06-28T22:12:55.078Z,2.40
2017-06-28T22:15:23.102Z,2.00
2017-06-28T22:17:52.009Z,2.10
2017-06-28T22:20:37.606Z,2.10
2017-06-28T22:23:05.617Z,2.40
2017-06-28T22:25:34.399Z,2.00
2017-06-28T22:28:15.071Z,2.13
2017-06-28T22:30:43.091Z,2.40
2017-06-28T22:33:21.542Z,2.40
2017-06-28T22:35:53.586Z,1.83
2017-06-28T22:38:27.429Z,2.10
2017-06-28T22:40:58.130Z,2.20
2017-06-28T22:43:28.058Z,2.50
2017-06-28T22:46:17.530Z,2.80
2017-06-28T22:48:55.822Z,3.30
2017-06-28T22:51:29.526Z,3.10
2017-06-28T22:54:01.489Z,2.30
2017-06-28T22:56:54.925Z,2.20
2017-06-28T23:02:38.062Z,2.77
2017-06-28T23:05:07.989Z,2.83
2017-06-28T23:07:50.817Z,2.90
2017-06-28T23:10:29.098Z,3.57
2017-06-28T23:13:02.773Z,3.47
2017-06-28T23:18:25.641Z,3.50
2017-06-28T23:20:58.789Z,3.40
2017-06-28T23:23:32.453Z,3.80
2017-06-28T23:26:00.505Z,3.40
2017-06-28T23:28:43.333Z,2.87
2017-06-28T23:31:17.513Z,3.03
2017-06-28T23:33:46.421Z,2.53
2017-06-28T23:39:08.610Z,2.47
2017-06-28T23:41:36.645Z,2.50
2017-06-28T23:44:05.549Z,3.33
2017-06-28T23:46:33.561Z,3.43
2017-06-28T23:49:01.602Z,2.80
2017-06-28T23:51:46.751Z,2.80
2017-06-28T23:54:37.689Z,2.77
2017-06-28T23:57:12.928Z,3.00
2017-06-28T23:59:49.408Z,2.70
